createdAt,value
2022-12-17T00:03:43.576Z,68.16
2022-12-17T00:09:05.243Z,68.59
2022-12-17T00:14:25.580Z,68.93
2022-12-17T00:19:46.111Z,69.01
2022-12-17T00:25:07.692Z,69.07
2022-12-17T00:30:28.997Z,69.00
2022-12-17T00:35:49.248Z,69.15
2022-12-17T00:41:11.881Z,69.47
2022-12-17T00:46:32.429Z,69.77
2022-12-17T00:51:52.909Z,69.62
2022-12-17T00:57:14.884Z,71.04
2022-12-17T01:02:35.298Z,71.09
2022-12-17T01:07:55.868Z,70.65
2022-12-17T01:13:18.042Z,71.20
2022-12-17T01:18:39.193Z,71.15
2022-12-17T01:23:59.695Z,70.55
2022-12-17T01:29:21.563Z,70.25
2022-12-17T01:34:41.915Z,69.86
2022-12-17T01:40:02.282Z,70.27
2022-12-17T01:45:30.350Z,69.50
2022-12-17T01:50:55.272Z,69.21
2022-12-17T01:56:16.148Z,69.23
2022-12-17T02:01:39.268Z,69.01
2022-12-17T02:07:08.997Z,69.24
2022-12-17T02:12:40.652Z,69.39
2022-12-17T02:18:08.127Z,69.74
2022-12-17T02:23:49.722Z,69.68
2022-12-17T02:29:13.943Z,69.19
2022-12-17T02:34:34.377Z,69.26
2022-12-17T02:39:53.902Z,69.33
2022-12-17T02:45:32.765Z,69.35
2022-12-17T02:50:53.414Z,69.12
2022-12-17T02:56:13.847Z,68.84
2022-12-17T03:01:36.211Z,68.83
2022-12-17T03:06:58.073Z,68.67
2022-12-17T03:12:19.449Z,68.71
2022-12-17T03:17:40.930Z,68.74
2022-12-17T03:23:01.312Z,68.37
2022-12-17T03:28:23.653Z,68.62
2022-12-17T03:33:48.125Z,68.14
2022-12-17T03:39:08.300Z,68.35
2022-12-17T03:44:28.397Z,68.57
2022-12-17T03:49:50.066Z,68.66
2022-12-17T03:55:10.310Z,69.31
2022-12-17T04:00:31.583Z,69.41
2022-12-17T04:05:53.201Z,69.58
2022-12-17T04:11:13.644Z,70.54
2022-12-17T04:16:34.180Z,70.35
2022-12-17T04:21:55.610Z,70.08
2022-12-17T04:27:15.947Z,70.23
2022-12-17T04:32:36.264Z,70.46
2022-12-17T04:37:57.813Z,70.47
2022-12-17T04:43:25.237Z,70.41
2022-12-17T04:48:45.457Z,70.56
2022-12-17T04:54:07.113Z,71.00
2022-12-17T04:59:27.281Z,70.49
2022-12-17T05:04:47.647Z,70.26
2022-12-17T05:10:09.089Z,70.48
2022-12-17T05:15:29.381Z,70.21
2022-12-17T05:20:49.634Z,70.19
2022-12-17T05:26:21.530Z,70.22
2022-12-17T05:31:42.415Z,69.90
2022-12-17T05:37:03.215Z,69.60
2022-12-17T05:42:33.448Z,69.68
2022-12-17T05:47:53.987Z,69.88
2022-12-17T05:53:20.293Z,69.83
2022-12-17T05:58:42.076Z,69.51
2022-12-17T06:04:02.384Z,69.46
2022-12-17T06:09:23.169Z,69.64
2022-12-17T06:14:44.581Z,69.63
2022-12-17T06:20:04.823Z,69.28
2022-12-17T06:25:25.529Z,68.85
2022-12-17T06:30:47.582Z,69.03
2022-12-17T06:36:07.907Z,68.87
2022-12-17T06:41:28.359Z,69.50
2022-12-17T06:46:49.905Z,69.84
2022-12-17T06:52:10.051Z,69.75
2022-12-17T06:57:30.446Z,70.31
2022-12-17T07:02:52.013Z,71.05
2022-12-17T07:08:15.747Z,71.15
2022-12-17T07:13:36.197Z,71.10
2022-12-17T07:18:58.770Z,70.56
2022-12-17T07:24:19.273Z,70.84
2022-12-17T07:29:39.444Z,73.89
2022-12-17T07:35:00.973Z,74.38
2022-12-17T07:40:21.297Z,77.81
2022-12-17T07:45:41.650Z,76.15
2022-12-17T07:51:07.265Z,74.06
2022-12-17T07:56:27.621Z,72.07
2022-12-17T08:01:48.134Z,71.36
2022-12-17T08:07:14.004Z,70.93
2022-12-17T08:12:34.921Z,71.46
2022-12-17T08:17:55.295Z,71.80
2022-12-17T08:23:23.362Z,71.84
2022-12-17T08:28:51.336Z,72.11
2022-12-17T08:34:14.935Z,71.98
2022-12-17T08:39:36.735Z,72.33
2022-12-17T08:44:57.170Z,73.33
2022-12-17T08:50:17.610Z,72.79
2022-12-17T08:55:39.400Z,72.55
2022-12-17T09:01:00.555Z,71.36
2022-12-17T09:06:19.958Z,71.47
2022-12-17T09:11:41.685Z,69.88
2022-12-17T09:17:02.197Z,70.50
2022-12-17T09:22:22.572Z,69.29
2022-12-17T09:27:44.462Z,69.26
2022-12-17T09:33:04.744Z,68.24
2022-12-17T09:38:25.247Z,68.24
2022-12-17T09:43:55.983Z,68.36
2022-12-17T09:49:20.607Z,67.74
2022-12-17T09:54:49.051Z,66.86
2022-12-17T10:00:10.547Z,66.73
2022-12-17T10:05:44.762Z,65.69
2022-12-17T10:11:05.294Z,62.62
2022-12-17T10:16:42.712Z,60.39
2022-12-17T10:22:03.237Z,60.56
2022-12-17T10:27:28.319Z,58.97
2022-12-17T10:32:50.459Z,56.78
2022-12-17T10:38:11.077Z,55.25
2022-12-17T10:43:41.794Z,53.81
2022-12-17T10:49:08.288Z,53.09
2022-12-17T10:54:47.039Z,50.76
2022-12-17T11:00:09.859Z,49.78
2022-12-17T11:05:44.069Z,48.07
2022-12-17T11:11:05.847Z,46.25
2022-12-17T11:16:39.730Z,46.19
2022-12-17T11:22:03.551Z,44.75
2022-12-17T11:27:27.351Z,44.93
2022-12-17T11:33:05.190Z,44.55
2022-12-17T11:38:40.700Z,43.46
2022-12-17T11:44:09.245Z,44.27
2022-12-17T11:49:37.660Z,44.13
2022-12-17T11:55:07.306Z,46.02
2022-12-17T12:00:35.053Z,46.57
2022-12-17T12:06:04.598Z,45.38
2022-12-17T12:11:38.836Z,44.99
2022-12-17T12:17:07.811Z,45.19
2022-12-17T12:22:37.623Z,45.50
2022-12-17T12:28:15.847Z,46.38
2022-12-17T12:33:46.554Z,46.20
2022-12-17T12:39:12.074Z,48.37
2022-12-17T12:44:40.576Z,53.76
2022-12-17T12:50:10.739Z,49.00
2022-12-17T12:55:31.814Z,48.14
2022-12-17T13:00:57.318Z,47.47
2022-12-17T13:06:00.241Z,48.92
2022-12-17T13:11:13.100Z,50.12
2022-12-17T13:16:27.246Z,50.33
2022-12-17T13:21:31.699Z,51.03
2022-12-17T13:26:45.266Z,50.54
2022-12-17T13:32:03.619Z,49.85
2022-12-17T13:37:11.857Z,49.81
2022-12-17T13:42:27.991Z,50.52
2022-12-17T13:47:34.522Z,50.13
2022-12-17T13:52:37.691Z,50.05
2022-12-17T13:57:46.695Z,50.79
2022-12-17T14:02:51.790Z,50.66
2022-12-17T14:07:59.535Z,51.26
2022-12-17T14:13:07.335Z,51.48
2022-12-17T14:18:15.824Z,52.03
2022-12-17T14:23:27.165Z,52.30
2022-12-17T14:28:34.506Z,53.08
2022-12-17T14:33:39.582Z,53.52
2022-12-17T14:38:54.864Z,55.36
2022-12-17T14:44:02.245Z,56.99
2022-12-17T14:49:18.564Z,57.89
2022-12-17T14:54:30.803Z,59.49
2022-12-17T14:59:35.398Z,60.96
2022-12-17T15:04:40.422Z,61.47
2022-12-17T15:09:44.157Z,62.00
2022-12-17T15:14:47.681Z,62.31
2022-12-17T15:19:56.079Z,62.44
2022-12-17T15:24:59.235Z,62.49
2022-12-17T15:30:02.064Z,63.16
2022-12-17T15:35:07.293Z,63.19
2022-12-17T15:40:12.111Z,63.54
2022-12-17T15:45:14.967Z,64.11
2022-12-17T15:50:19.234Z,64.42
2022-12-17T15:55:22.157Z,64.80
2022-12-17T16:00:25.442Z,64.63
2022-12-17T16:05:30.846Z,64.82
2022-12-17T16:10:33.745Z,65.49
2022-12-17T16:15:36.678Z,65.49
2022-12-17T16:20:41.137Z,65.67
2022-12-17T16:25:44.005Z,65.81
2022-12-17T16:30:46.977Z,65.44
2022-12-17T16:35:53.179Z,65.22
2022-12-17T16:40:57.494Z,65.24
2022-12-17T16:46:00.483Z,65.12
2022-12-17T16:51:16.327Z,65.40
2022-12-17T16:56:20.907Z,65.00
2022-12-17T17:01:26.471Z,65.15
2022-12-17T17:06:33.813Z,65.41
2022-12-17T17:11:37.134Z,65.69
2022-12-17T17:16:40.047Z,65.82
2022-12-17T17:21:50.665Z,65.82
2022-12-17T17:26:55.913Z,66.41
2022-12-17T17:32:10.311Z,66.65
2022-12-17T17:37:15.706Z,66.58
2022-12-17T17:42:18.535Z,66.54
2022-12-17T17:47:21.348Z,66.72
2022-12-17T17:52:25.534Z,66.88
2022-12-17T17:57:28.610Z,66.75
2022-12-17T18:02:31.585Z,66.85
2022-12-17T18:07:35.972Z,66.89
2022-12-17T18:12:56.731Z,66.94
2022-12-17T18:17:59.613Z,66.89
2022-12-17T18:23:04.239Z,66.89
2022-12-17T18:28:07.160Z,67.03
2022-12-17T18:33:09.992Z,66.89
2022-12-17T18:38:14.538Z,67.28
2022-12-17T18:43:26.411Z,67.43
2022-12-17T18:48:29.200Z,67.42
2022-12-17T18:53:33.580Z,67.37
2022-12-17T18:58:36.858Z,67.78
2022-12-17T19:03:40.139Z,67.47
2022-12-17T19:08:44.617Z,67.53
2022-12-17T19:13:51.579Z,67.74
2022-12-17T19:18:56.471Z,67.91
2022-12-17T19:24:04.110Z,68.08
2022-12-17T19:29:08.499Z,68.20
2022-12-17T19:34:13.560Z,68.57
2022-12-17T19:39:20.757Z,68.35
2022-12-17T19:44:23.577Z,68.49
2022-12-17T19:49:26.451Z,68.38
2022-12-17T19:54:30.857Z,68.35
2022-12-17T19:59:33.782Z,68.31
2022-12-17T20:04:36.785Z,68.08
2022-12-17T20:09:44.121Z,68.08
2022-12-17T20:14:46.930Z,68.09
2022-12-17T20:19:53.326Z,68.27
2022-12-17T20:25:01.403Z,68.30
2022-12-17T20:30:05.122Z,68.34
2022-12-17T20:35:09.122Z,68.40
2022-12-17T20:40:13.497Z,68.51
2022-12-17T20:45:16.383Z,68.37
2022-12-17T20:50:19.326Z,68.46
2022-12-17T20:55:29.378Z,68.26
2022-12-17T21:00:34.415Z,68.28
2022-12-17T21:05:37.227Z,68.34
2022-12-17T21:10:41.407Z,68.37
2022-12-17T21:15:50.093Z,68.29
2022-12-17T21:20:57.621Z,68.02
2022-12-17T21:26:04.174Z,68.20
2022-12-17T21:31:17.474Z,68.30
2022-12-17T21:36:23.278Z,68.02
2022-12-17T21:41:29.622Z,68.49
2022-12-17T21:46:33.641Z,68.40
2022-12-17T21:51:36.633Z,68.20
2022-12-17T21:56:40.881Z,67.98
2022-12-17T22:01:43.874Z,68.56
2022-12-17T22:06:52.302Z,69.09
2022-12-17T22:12:28.650Z,68.81
2022-12-17T22:17:31.514Z,68.55
2022-12-17T22:22:35.163Z,68.64
2022-12-17T22:27:40.088Z,68.93
2022-12-17T22:33:07.282Z,68.86
2022-12-17T22:42:17.242Z,68.85
2022-12-17T22:44:41.674Z,68.99
2022-12-17T22:49:14.153Z,68.43
2022-12-17T22:54:17.086Z,68.24
2022-12-17T22:59:21.586Z,68.13
2022-12-17T23:04:24.535Z,68.20
2022-12-17T23:09:27.455Z,68.39
2022-12-17T23:14:31.745Z,68.23
2022-12-17T23:19:34.596Z,67.93
2022-12-17T23:24:37.506Z,68.21
2022-12-17T23:29:41.776Z,68.09
2022-12-17T23:34:44.701Z,67.84
2022-12-17T23:39:47.622Z,67.74
2022-12-17T23:44:52.252Z,67.83
2022-12-17T23:49:55.138Z,67.55
2022-12-17T23:54:59.180Z,67.79
